sensor_id;sensor_type;location;lat;lon;timestamp;pressure;altitude;pressure_sealevel;temperature;humidity
61484;BME280;47349;55.640;37.692;2023-06-22T00:01:34;99459.47;;;16.54;47.04
61484;BME280;47349;55.640;37.692;2023-06-22T00:04:04;99462.22;;;16.47;47.18
61484;BME280;47349;55.640;37.692;2023-06-22T00:06:32;99458.50;;;16.41;47.08
61484;BME280;47349;55.640;37.692;2023-06-22T00:08:59;99466.03;;;16.39;47.54
61484;BME280;47349;55.640;37.692;2023-06-22T00:11:27;99463.16;;;16.34;47.69
61484;BME280;47349;55.640;37.692;2023-06-22T00:13:55;99472.91;;;16.35;48.17
61484;BME280;47349;55.640;37.692;2023-06-22T00:16:22;99456.78;;;16.22;48.25
61484;BME280;47349;55.640;37.692;2023-06-22T00:18:50;99448.31;;;16.12;48.58
61484;BME280;47349;55.640;37.692;2023-06-22T00:21:17;99441.44;;;16.09;48.86
61484;BME280;47349;55.640;37.692;2023-06-22T00:23:47;99456.66;;;16.10;49.11
61484;BME280;47349;55.640;37.692;2023-06-22T00:26:15;99453.78;;;15.99;49.37
61484;BME280;47349;55.640;37.692;2023-06-22T00:28:44;99453.13;;;16.03;49.41
61484;BME280;47349;55.640;37.692;2023-06-22T00:31:11;99460.03;;;15.99;49.52
61484;BME280;47349;55.640;37.692;2023-06-22T00:33:38;99466.44;;;16.05;49.22
61484;BME280;47349;55.640;37.692;2023-06-22T00:36:15;99445.91;;;15.90;49.20
61484;BME280;47349;55.640;37.692;2023-06-22T00:38:44;99461.28;;;15.97;49.33
61484;BME280;47349;55.640;37.692;2023-06-22T00:41:12;99447.16;;;15.94;49.00
61484;BME280;47349;55.640;37.692;2023-06-22T00:43:41;99446.56;;;15.92;49.43
61484;BME280;47349;55.640;37.692;2023-06-22T00:46:09;99462.53;;;15.94;49.49
61484;BME280;47349;55.640;37.692;2023-06-22T00:48:38;99447.03;;;15.83;49.69
61484;BME280;47349;55.640;37.692;2023-06-22T00:51:07;99444.75;;;15.80;50.20
61484;BME280;47349;55.640;37.692;2023-06-22T00:53:35;99468.00;;;15.87;50.20
61484;BME280;47349;55.640;37.692;2023-06-22T00:56:04;99458.06;;;15.81;50.67
61484;BME280;47349;55.640;37.692;2023-06-22T00:58:36;99451.41;;;15.77;50.55
61484;BME280;47349;55.640;37.692;2023-06-22T01:01:04;99439.97;;;15.75;50.59
61484;BME280;47349;55.640;37.692;2023-06-22T01:03:32;99465.47;;;15.92;50.77
61484;BME280;47349;55.640;37.692;2023-06-22T01:06:19;99448.06;;;15.82;51.21
61484;BME280;47349;55.640;37.692;2023-06-22T01:09:15;99446.19;;;15.76;51.19
61484;BME280;47349;55.640;37.692;2023-06-22T01:11:53;99453.66;;;15.80;50.67
61484;BME280;47349;55.640;37.692;2023-06-22T01:14:42;99456.19;;;15.75;50.54
61484;BME280;47349;55.640;37.692;2023-06-22T01:17:15;99440.91;;;15.49;51.14
61484;BME280;47349;55.640;37.692;2023-06-22T01:19:49;99464.75;;;15.59;51.31
61484;BME280;47349;55.640;37.692;2023-06-22T01:22:25;99463.09;;;15.58;51.50
61484;BME280;47349;55.640;37.692;2023-06-22T01:28:05;99480.91;;;15.79;51.37
61484;BME280;47349;55.640;37.692;2023-06-22T01:30:45;99469.69;;;15.82;51.39
61484;BME280;47349;55.640;37.692;2023-06-22T01:33:14;99482.38;;;15.81;51.73
61484;BME280;47349;55.640;37.692;2023-06-22T01:35:44;99472.22;;;15.77;52.31
61484;BME280;47349;55.640;37.692;2023-06-22T01:38:11;99468.22;;;15.79;52.88
61484;BME280;47349;55.640;37.692;2023-06-22T01:40:39;99470.94;;;15.79;52.46
61484;BME280;47349;55.640;37.692;2023-06-22T01:43:07;99470.91;;;15.86;51.94
61484;BME280;47349;55.640;37.692;2023-06-22T01:45:35;99472.78;;;15.85;51.92
61484;BME280;47349;55.640;37.692;2023-06-22T01:48:03;99477.16;;;15.86;52.52
61484;BME280;47349;55.640;37.692;2023-06-22T01:50:30;99471.53;;;15.88;51.56
61484;BME280;47349;55.640;37.692;2023-06-22T01:52:58;99465.88;;;15.96;51.14
61484;BME280;47349;55.640;37.692;2023-06-22T01:55:25;99475.81;;;16.02;51.67
61484;BME280;47349;55.640;37.692;2023-06-22T01:57:53;99473.06;;;16.09;51.61
61484;BME280;47349;55.640;37.692;2023-06-22T02:00:22;99468.28;;;16.11;50.68
61484;BME280;47349;55.640;37.692;2023-06-22T02:02:57;99474.28;;;16.13;51.01
61484;BME280;47349;55.640;37.692;2023-06-22T02:05:31;99463.34;;;16.01;51.45
61484;BME280;47349;55.640;37.692;2023-06-22T02:08:12;99480.53;;;16.13;53.51
61484;BME280;47349;55.640;37.692;2023-06-22T02:10:45;99467.47;;;16.10;53.02
61484;BME280;47349;55.640;37.692;2023-06-22T02:13:14;99481.81;;;16.11;53.44
61484;BME280;47349;55.640;37.692;2023-06-22T02:15:56;99476.81;;;16.08;54.50
61484;BME280;47349;55.640;37.692;2023-06-22T02:18:24;99477.00;;;16.13;55.29
61484;BME280;47349;55.640;37.692;2023-06-22T02:20:52;99467.47;;;16.10;53.67
61484;BME280;47349;55.640;37.692;2023-06-22T02:23:21;99463.72;;;16.05;53.41
61484;BME280;47349;55.640;37.692;2023-06-22T02:25:49;99468.28;;;16.11;54.89
61484;BME280;47349;55.640;37.692;2023-06-22T02:28:16;99454.59;;;16.06;55.32
61484;BME280;47349;55.640;37.692;2023-06-22T02:30:45;99451.66;;;16.07;55.16
61484;BME280;47349;55.640;37.692;2023-06-22T02:33:12;99449.78;;;16.08;55.71
61484;BME280;47349;55.640;37.692;2023-06-22T02:35:40;99453.09;;;16.10;57.01
61484;BME280;47349;55.640;37.692;2023-06-22T02:38:32;99435.03;;;16.04;54.68
61484;BME280;47349;55.640;37.692;2023-06-22T02:41:02;99445.84;;;16.10;55.93
61484;BME280;47349;55.640;37.692;2023-06-22T02:43:29;99428.22;;;15.94;57.32
61484;BME280;47349;55.640;37.692;2023-06-22T02:45:58;99445.44;;;16.07;55.75
61484;BME280;47349;55.640;37.692;2023-06-22T02:48:26;99441.31;;;15.98;54.83
61484;BME280;47349;55.640;37.692;2023-06-22T02:50:53;99434.50;;;15.88;56.60
61484;BME280;47349;55.640;37.692;2023-06-22T02:53:21;99438.63;;;15.98;53.93
61484;BME280;47349;55.640;37.692;2023-06-22T02:55:49;99441.69;;;16.08;53.33
61484;BME280;47349;55.640;37.692;2023-06-22T02:58:17;99446.84;;;16.16;53.81
61484;BME280;47349;55.640;37.692;2023-06-22T03:00:45;99436.22;;;16.14;55.36
61484;BME280;47349;55.640;37.692;2023-06-22T03:03:12;99441.59;;;16.21;53.29
61484;BME280;47349;55.640;37.692;2023-06-22T03:05:39;99418.69;;;16.24;52.79
61484;BME280;47349;55.640;37.692;2023-06-22T03:08:09;99421.72;;;16.34;51.90
61484;BME280;47349;55.640;37.692;2023-06-22T03:10:37;99430.81;;;16.46;52.23
61484;BME280;47349;55.640;37.692;2023-06-22T03:13:04;99419.50;;;16.56;51.88
61484;BME280;47349;55.640;37.692;2023-06-22T03:15:31;99419.25;;;16.57;50.95
61484;BME280;47349;55.640;37.692;2023-06-22T03:24:27;99408.66;;;16.56;51.75
61484;BME280;47349;55.640;37.692;2023-06-22T03:26:57;99406.34;;;16.59;52.25
61484;BME280;47349;55.640;37.692;2023-06-22T03:29:25;99404.88;;;16.63;52.18
61484;BME280;47349;55.640;37.692;2023-06-22T03:31:57;99399.81;;;16.67;52.29
61484;BME280;47349;55.640;37.692;2023-06-22T03:34:27;99419.66;;;16.86;52.81
61484;BME280;47349;55.640;37.692;2023-06-22T03:37:09;99418.84;;;16.85;53.32
61484;BME280;47349;55.640;37.692;2023-06-22T03:39:52;99421.25;;;16.93;52.99
61484;BME280;47349;55.640;37.692;2023-06-22T03:42:35;99413.13;;;16.93;53.52
61484;BME280;47349;55.640;37.692;2023-06-22T03:45:09;99383.88;;;16.84;53.76
61484;BME280;47349;55.640;37.692;2023-06-22T03:47:51;99408.03;;;17.04;53.90
61484;BME280;47349;55.640;37.692;2023-06-22T03:50:32;99399.25;;;17.08;53.73
61484;BME280;47349;55.640;37.692;2023-06-22T03:53:13;99371.63;;;17.00;52.65
61484;BME280;47349;55.640;37.692;2023-06-22T03:55:53;99387.88;;;17.18;52.76
61484;BME280;47349;55.640;37.692;2023-06-22T03:58:23;99375.69;;;17.27;52.80
61484;BME280;47349;55.640;37.692;2023-06-22T04:01:04;99383.06;;;17.38;52.66
61484;BME280;47349;55.640;37.692;2023-06-22T04:03:35;99386.53;;;17.45;52.23
61484;BME280;47349;55.640;37.692;2023-06-22T04:06:08;99392.81;;;17.58;52.34
61484;BME280;47349;55.640;37.692;2023-06-22T04:08:51;99381.97;;;17.58;51.67
61484;BME280;47349;55.640;37.692;2023-06-22T04:11:36;99387.97;;;17.78;51.31
61484;BME280;47349;55.640;37.692;2023-06-22T04:14:17;99387.94;;;17.96;49.78
61484;BME280;47349;55.640;37.692;2023-06-22T04:16:58;99366.09;;;17.91;49.49
61484;BME280;47349;55.640;37.692;2023-06-22T04:19:41;99357.91;;;18.10;48.62
61484;BME280;47349;55.640;37.692;2023-06-22T04:22:24;99357.34;;;18.31;46.15
61484;BME280;47349;55.640;37.692;2023-06-22T04:35:24;99385.81;;;19.11;46.06
61484;BME280;47349;55.640;37.692;2023-06-22T04:38:01;99367.38;;;19.13;46.11
61484;BME280;47349;55.640;37.692;2023-06-22T04:40:46;99374.44;;;19.25;45.29
61484;BME280;47349;55.640;37.692;2023-06-22T04:43:29;99383.72;;;19.41;43.54
61484;BME280;47349;55.640;37.692;2023-06-22T04:46:21;99372.75;;;19.36;43.65
61484;BME280;47349;55.640;37.692;2023-06-22T04:49:02;99368.16;;;19.37;44.71
61484;BME280;47349;55.640;37.692;2023-06-22T04:51:33;99375.84;;;19.28;43.15
61484;BME280;47349;55.640;37.692;2023-06-22T04:54:17;99366.16;;;19.32;43.77
61484;BME280;47349;55.640;37.692;2023-06-22T04:56:45;99353.44;;;19.21;41.50
61484;BME280;47349;55.640;37.692;2023-06-22T04:59:30;99349.75;;;19.27;41.72
61484;BME280;47349;55.640;37.692;2023-06-22T05:02:01;99338.91;;;19.15;41.49
61484;BME280;47349;55.640;37.692;2023-06-22T05:04:48;99345.03;;;19.22;42.03
61484;BME280;47349;55.640;37.692;2023-06-22T05:07:24;99345.91;;;19.11;42.02
61484;BME280;47349;55.640;37.692;2023-06-22T05:10:19;99364.97;;;19.28;41.84
61484;BME280;47349;55.640;37.692;2023-06-22T05:13:00;99368.75;;;19.27;41.24
61484;BME280;47349;55.640;37.692;2023-06-22T05:15:29;99383.31;;;19.21;41.69
61484;BME280;47349;55.640;37.692;2023-06-22T05:18:04;99380.72;;;19.14;42.25
61484;BME280;47349;55.640;37.692;2023-06-22T05:20:34;99385.31;;;19.14;42.26
61484;BME280;47349;55.640;37.692;2023-06-22T05:23:04;99383.69;;;19.13;42.13
61484;BME280;47349;55.640;37.692;2023-06-22T05:28:58;99343.63;;;19.20;42.10
61484;BME280;47349;55.640;37.692;2023-06-22T05:57:39;99377.94;;;20.07;41.06
61484;BME280;47349;55.640;37.692;2023-06-22T07:20:38;99345.91;;;21.64;37.73
61484;BME280;47349;55.640;37.692;2023-06-22T07:23:27;99350.22;;;21.60;38.11
61484;BME280;47349;55.640;37.692;2023-06-22T07:27:23;99339.56;;;21.85;38.56
61484;BME280;47349;55.640;37.692;2023-06-22T07:30:54;99339.44;;;21.97;37.76
61484;BME280;47349;55.640;37.692;2023-06-22T07:33:41;99333.56;;;22.10;37.78
61484;BME280;47349;55.640;37.692;2023-06-22T07:36:22;99358.00;;;22.00;37.93
61484;BME280;47349;55.640;37.692;2023-06-22T07:39:08;99353.97;;;22.07;37.78
61484;BME280;47349;55.640;37.692;2023-06-22T07:41:39;99323.97;;;22.07;37.14
61484;BME280;47349;55.640;37.692;2023-06-22T07:44:09;99348.72;;;22.28;37.60
61484;BME280;47349;55.640;37.692;2023-06-22T07:46:50;99321.09;;;22.19;37.99
61484;BME280;47349;55.640;37.692;2023-06-22T07:49:43;99334.59;;;22.36;37.68
61484;BME280;47349;55.640;37.692;2023-06-22T07:52:27;99313.50;;;21.99;38.73
61484;BME280;47349;55.640;37.692;2023-06-22T07:55:09;99322.75;;;21.93;38.14
61484;BME280;47349;55.640;37.692;2023-06-22T07:57:37;99311.50;;;22.17;37.59
61484;BME280;47349;55.640;37.692;2023-06-22T08:00:14;99362.31;;;22.55;37.88
61484;BME280;47349;55.640;37.692;2023-06-22T08:02:45;99327.44;;;22.25;38.68
61484;BME280;47349;55.640;37.692;2023-06-22T08:11:33;99313.00;;;22.02;38.70
61484;BME280;47349;55.640;37.692;2023-06-22T08:14:15;99321.47;;;21.74;39.64
61484;BME280;47349;55.640;37.692;2023-06-22T08:16:44;99317.72;;;21.53;40.08
61484;BME280;47349;55.640;37.692;2023-06-22T08:19:48;99326.00;;;21.63;38.96
61484;BME280;47349;55.640;37.692;2023-06-22T08:22:57;99326.88;;;21.96;39.14
61484;BME280;47349;55.640;37.692;2023-06-22T08:25:41;99319.72;;;22.17;38.84
61484;BME280;47349;55.640;37.692;2023-06-22T08:28:17;99316.59;;;22.35;38.99
61484;BME280;47349;55.640;37.692;2023-06-22T08:46:37;99316.13;;;22.48;37.73
61484;BME280;47349;55.640;37.692;2023-06-22T08:49:24;99316.44;;;22.57;37.13
61484;BME280;47349;55.640;37.692;2023-06-22T08:51:53;99321.66;;;22.58;37.00
61484;BME280;47349;55.640;37.692;2023-06-22T08:54:39;99319.72;;;22.54;37.23
61484;BME280;47349;55.640;37.692;2023-06-22T08:57:10;99311.50;;;22.49;37.57
61484;BME280;47349;55.640;37.692;2023-06-22T08:59:39;99297.81;;;22.44;37.55
61484;BME280;47349;55.640;37.692;2023-06-22T09:02:20;99303.03;;;22.50;37.34
61484;BME280;47349;55.640;37.692;2023-06-22T09:04:48;99300.63;;;22.59;36.88
61484;BME280;47349;55.640;37.692;2023-06-22T09:10:10;99287.00;;;22.64;37.54
61484;BME280;47349;55.640;37.692;2023-06-22T09:12:39;99288.22;;;22.41;37.15
61484;BME280;47349;55.640;37.692;2023-06-22T09:15:23;99282.22;;;22.39;37.53
61484;BME280;47349;55.640;37.692;2023-06-22T09:18:23;99290.34;;;22.81;36.93
61484;BME280;47349;55.640;37.692;2023-06-22T09:21:23;99295.44;;;22.63;36.56
61484;BME280;47349;55.640;37.692;2023-06-22T09:26:56;99281.44;;;22.96;35.18
61484;BME280;47349;55.640;37.692;2023-06-22T09:29:32;99274.97;;;23.18;35.22
61484;BME280;47349;55.640;37.692;2023-06-22T09:32:02;99263.47;;;23.21;35.51
61484;BME280;47349;55.640;37.692;2023-06-22T09:34:52;99273.91;;;23.29;35.42
61484;BME280;47349;55.640;37.692;2023-06-22T09:40:27;99269.81;;;23.21;35.37
61484;BME280;47349;55.640;37.692;2023-06-22T09:42:54;99270.00;;;23.04;35.84
61484;BME280;47349;55.640;37.692;2023-06-22T09:45:22;99276.84;;;23.07;36.03
61484;BME280;47349;55.640;37.692;2023-06-22T09:47:51;99285.31;;;23.05;35.19
61484;BME280;47349;55.640;37.692;2023-06-22T09:51:12;99279.59;;;23.07;35.50
61484;BME280;47349;55.640;37.692;2023-06-22T09:53:54;99246.19;;;23.00;35.75
61484;BME280;47349;55.640;37.692;2023-06-22T09:56:41;99250.88;;;23.09;35.77
61484;BME280;47349;55.640;37.692;2023-06-22T09:59:42;99263.56;;;23.41;36.01
61484;BME280;47349;55.640;37.692;2023-06-22T10:02:23;99232.91;;;23.44;35.92
61484;BME280;47349;55.640;37.692;2023-06-22T10:05:05;99258.63;;;23.48;35.11
61484;BME280;47349;55.640;37.692;2023-06-22T10:07:46;99255.81;;;23.13;35.42
61484;BME280;47349;55.640;37.692;2023-06-22T10:10:14;99276.63;;;23.24;36.06
61484;BME280;47349;55.640;37.692;2023-06-22T10:13:08;99248.72;;;23.12;35.94
61484;BME280;47349;55.640;37.692;2023-06-22T10:15:43;99246.28;;;23.25;36.37
61484;BME280;47349;55.640;37.692;2023-06-22T10:18:32;99246.06;;;23.42;35.49
61484;BME280;47349;55.640;37.692;2023-06-22T10:21:13;99252.16;;;23.80;35.19
61484;BME280;47349;55.640;37.692;2023-06-22T10:26:40;99248.81;;;23.57;35.72
61484;BME280;47349;55.640;37.692;2023-06-22T10:29:08;99243.31;;;23.42;35.62
61484;BME280;47349;55.640;37.692;2023-06-22T10:31:43;99237.56;;;23.49;35.97
61484;BME280;47349;55.640;37.692;2023-06-22T10:35:01;99238.44;;;23.59;35.83
61484;BME280;47349;55.640;37.692;2023-06-22T10:37:32;99206.16;;;23.67;35.50
61484;BME280;47349;55.640;37.692;2023-06-22T10:40:20;99207.53;;;23.79;35.18
61484;BME280;47349;55.640;37.692;2023-06-22T10:43:03;99185.66;;;23.74;35.52
61484;BME280;47349;55.640;37.692;2023-06-22T10:45:30;99174.41;;;23.81;35.36
61484;BME280;47349;55.640;37.692;2023-06-22T10:48:12;99179.34;;;23.84;35.16
61484;BME280;47349;55.640;37.692;2023-06-22T10:50:40;99182.59;;;24.01;34.91
61484;BME280;47349;55.640;37.692;2023-06-22T10:53:58;99185.28;;;24.22;35.25
61484;BME280;47349;55.640;37.692;2023-06-22T10:56:40;99180.66;;;24.17;34.96
61484;BME280;47349;55.640;37.692;2023-06-22T10:59:26;99198.41;;;24.45;34.99
61484;BME280;47349;55.640;37.692;2023-06-22T11:01:58;99201.16;;;24.40;34.78
61484;BME280;47349;55.640;37.692;2023-06-22T11:04:35;99203.06;;;24.45;34.64
61484;BME280;47349;55.640;37.692;2023-06-22T11:07:16;99206.63;;;24.45;34.55
61484;BME280;47349;55.640;37.692;2023-06-22T11:09:58;99205.47;;;24.72;34.13
61484;BME280;47349;55.640;37.692;2023-06-22T11:12:45;99182.28;;;24.98;33.84
61484;BME280;47349;55.640;37.692;2023-06-22T11:15:13;99174.03;;;25.03;33.81
61484;BME280;47349;55.640;37.692;2023-06-22T11:17:40;99174.44;;;25.31;33.55
61484;BME280;47349;55.640;37.692;2023-06-22T11:22:59;99163.94;;;25.82;33.42
61484;BME280;47349;55.640;37.692;2023-06-22T11:25:37;99157.47;;;25.97;32.35
61484;BME280;47349;55.640;37.692;2023-06-22T11:28:19;99145.94;;;25.95;32.06
61484;BME280;47349;55.640;37.692;2023-06-22T11:30:47;99140.44;;;25.95;32.18
61484;BME280;47349;55.640;37.692;2023-06-22T11:36:07;99169.28;;;26.94;31.44
61484;BME280;47349;55.640;37.692;2023-06-22T11:38:54;99146.72;;;26.73;31.22
61484;BME280;47349;55.640;37.692;2023-06-22T11:41:23;99133.13;;;27.00;30.60
61484;BME280;47349;55.640;37.692;2023-06-22T11:43:52;99161.25;;;27.35;30.48
61484;BME280;47349;55.640;37.692;2023-06-22T11:49:35;99144.66;;;28.05;30.13
61484;BME280;47349;55.640;37.692;2023-06-22T11:52:03;99111.38;;;27.88;29.79
61484;BME280;47349;55.640;37.692;2023-06-22T11:54:37;99150.84;;;27.64;30.03
61484;BME280;47349;55.640;37.692;2023-06-22T11:57:20;99131.09;;;27.95;29.71
61484;BME280;47349;55.640;37.692;2023-06-22T11:59:47;99149.00;;;27.08;30.85
61484;BME280;47349;55.640;37.692;2023-06-22T12:05:26;99122.16;;;26.09;32.24
61484;BME280;47349;55.640;37.692;2023-06-22T12:28:50;99092.50;;;28.23;30.21
61484;BME280;47349;55.640;37.692;2023-06-22T12:31:31;99058.00;;;28.53;29.04
61484;BME280;47349;55.640;37.692;2023-06-22T12:34:12;99082.22;;;28.92;28.45
61484;BME280;47349;55.640;37.692;2023-06-22T12:36:53;99065.69;;;29.37;28.72
61484;BME280;47349;55.640;37.692;2023-06-22T12:39:35;99097.16;;;29.81;28.42
61484;BME280;47349;55.640;37.692;2023-06-22T12:42:13;99062.31;;;29.62;28.76
61484;BME280;47349;55.640;37.692;2023-06-22T12:45:12;99059.69;;;29.57;28.14
61484;BME280;47349;55.640;37.692;2023-06-22T12:47:40;99057.22;;;29.87;27.77
61484;BME280;47349;55.640;37.692;2023-06-22T12:50:21;99053.91;;;29.76;27.91
61484;BME280;47349;55.640;37.692;2023-06-22T12:53:02;99064.25;;;29.62;28.74
61484;BME280;47349;55.640;37.692;2023-06-22T12:58:18;99058.19;;;29.06;28.07
61484;BME280;47349;55.640;37.692;2023-06-22T13:01:18;99064.63;;;28.65;29.17
61484;BME280;47349;55.640;37.692;2023-06-22T13:03:47;99045.38;;;29.10;28.72
61484;BME280;47349;55.640;37.692;2023-06-22T13:06:28;99030.13;;;28.54;29.40
61484;BME280;47349;55.640;37.692;2023-06-22T13:11:51;99061.94;;;29.33;28.77
61484;BME280;47349;55.640;37.692;2023-06-22T13:14:21;99031.22;;;29.03;28.54
61484;BME280;47349;55.640;37.692;2023-06-22T13:19:50;99046.50;;;29.54;27.41
61484;BME280;47349;55.640;37.692;2023-06-22T13:22:34;99059.28;;;30.12;26.67
61484;BME280;47349;55.640;37.692;2023-06-22T13:25:21;99028.56;;;30.14;26.94
61484;BME280;47349;55.640;37.692;2023-06-22T13:27:51;99029.38;;;30.14;26.95
61484;BME280;47349;55.640;37.692;2023-06-22T13:30:19;99041.31;;;30.32;26.32
61484;BME280;47349;55.640;37.692;2023-06-22T13:33:01;99043.19;;;30.71;26.03
61484;BME280;47349;55.640;37.692;2023-06-22T13:35:28;99044.09;;;29.61;26.64
61484;BME280;47349;55.640;37.692;2023-06-22T13:38:47;99034.16;;;29.07;27.28
61484;BME280;47349;55.640;37.692;2023-06-22T13:41:19;99028.09;;;28.46;27.31
61484;BME280;47349;55.640;37.692;2023-06-22T13:46:33;99023.34;;;28.24;28.34
61484;BME280;47349;55.640;37.692;2023-06-22T13:49:01;98991.94;;;28.84;27.32
61484;BME280;47349;55.640;37.692;2023-06-22T14:24:49;98973.59;;;29.33;27.59
61484;BME280;47349;55.640;37.692;2023-06-22T14:27:16;98984.16;;;28.86;28.09
61484;BME280;47349;55.640;37.692;2023-06-22T14:29:48;98960.41;;;28.54;29.03
61484;BME280;47349;55.640;37.692;2023-06-22T14:32:16;98988.28;;;29.19;28.32
61484;BME280;47349;55.640;37.692;2023-06-22T14:34:43;98995.53;;;29.60;27.77
61484;BME280;47349;55.640;37.692;2023-06-22T15:11:19;98977.09;;;28.07;29.72
61484;BME280;47349;55.640;37.692;2023-06-22T15:15:52;98978.09;;;28.39;28.91
61484;BME280;47349;55.640;37.692;2023-06-22T16:49:14;98941.94;;;24.88;38.63
61484;BME280;47349;55.640;37.692;2023-06-22T16:51:42;98937.50;;;24.64;39.11
61484;BME280;47349;55.640;37.692;2023-06-22T17:49:29;98950.22;;;21.23;45.81
61484;BME280;47349;55.640;37.692;2023-06-22T17:52:00;98983.50;;;21.30;46.52
61484;BME280;47349;55.640;37.692;2023-06-22T17:54:30;98986.16;;;21.20;46.15
61484;BME280;47349;55.640;37.692;2023-06-22T17:57:17;98995.81;;;21.33;46.77
61484;BME280;47349;55.640;37.692;2023-06-22T18:00:04;98996.25;;;21.19;46.72
61484;BME280;47349;55.640;37.692;2023-06-22T18:02:42;99000.22;;;21.07;47.34
61484;BME280;47349;55.640;37.692;2023-06-22T18:05:10;99007.53;;;21.01;48.04
61484;BME280;47349;55.640;37.692;2023-06-22T18:07:38;98995.44;;;20.87;47.83
61484;BME280;47349;55.640;37.692;2023-06-22T18:10:07;98999.06;;;20.65;47.83
61484;BME280;47349;55.640;37.692;2023-06-22T18:12:35;99007.91;;;20.50;48.17
61484;BME280;47349;55.640;37.692;2023-06-22T18:15:04;98993.66;;;20.43;48.49
61484;BME280;47349;55.640;37.692;2023-06-22T18:17:34;98995.84;;;20.19;48.63
61484;BME280;47349;55.640;37.692;2023-06-22T18:20:02;98990.41;;;20.19;49.00
61484;BME280;47349;55.640;37.692;2023-06-22T18:22:31;98995.78;;;20.14;49.06
61484;BME280;47349;55.640;37.692;2023-06-22T18:25:01;98976.31;;;20.00;49.31
61484;BME280;47349;55.640;37.692;2023-06-22T18:27:32;98988.28;;;19.99;49.53
61484;BME280;47349;55.640;37.692;2023-06-22T18:30:06;98999.91;;;19.95;49.63
61484;BME280;47349;55.640;37.692;2023-06-22T18:32:34;98997.47;;;19.93;50.19
61484;BME280;47349;55.640;37.692;2023-06-22T18:35:02;98985.13;;;19.86;49.88
61484;BME280;47349;55.640;37.692;2023-06-22T18:37:32;98989.72;;;19.85;50.16
61484;BME280;47349;55.640;37.692;2023-06-22T18:40:00;98992.72;;;19.84;50.14
61484;BME280;47349;55.640;37.692;2023-06-22T18:42:29;98985.47;;;19.72;50.34
61484;BME280;47349;55.640;37.692;2023-06-22T18:44:56;98984.31;;;19.63;51.05
61484;BME280;47349;55.640;37.692;2023-06-22T18:47:28;98992.13;;;19.60;50.96
61484;BME280;47349;55.640;37.692;2023-06-22T18:50:06;98972.69;;;19.51;51.16
61484;BME280;47349;55.640;37.692;2023-06-22T18:52:35;98979.75;;;19.52;51.15
61484;BME280;47349;55.640;37.692;2023-06-22T18:55:05;98981.09;;;19.49;51.19
61484;BME280;47349;55.640;37.692;2023-06-22T18:57:38;98989.41;;;19.43;51.57
61484;BME280;47349;55.640;37.692;2023-06-22T19:00:06;98973.63;;;19.23;51.55
61484;BME280;47349;55.640;37.692;2023-06-22T19:03:01;98986.13;;;19.24;52.06
61484;BME280;47349;55.640;37.692;2023-06-22T19:05:42;98979.66;;;19.08;52.20
61484;BME280;47349;55.640;37.692;2023-06-22T19:08:10;98973.59;;;18.84;52.67
61484;BME280;47349;55.640;37.692;2023-06-22T19:10:42;98970.03;;;18.84;53.16
61484;BME280;47349;55.640;37.692;2023-06-22T19:15:40;98986.50;;;18.77;53.20
61484;BME280;47349;55.640;37.692;2023-06-22T19:20:51;98990.94;;;18.83;53.31
61484;BME280;47349;55.640;37.692;2023-06-22T19:23:31;98990.38;;;18.81;53.47
61484;BME280;47349;55.640;37.692;2023-06-22T19:26:02;98979.66;;;18.74;53.52
61484;BME280;47349;55.640;37.692;2023-06-22T19:28:30;98971.06;;;18.66;53.37
61484;BME280;47349;55.640;37.692;2023-06-22T19:30:59;98981.28;;;18.59;53.68
61484;BME280;47349;55.640;37.692;2023-06-22T19:33:28;98990.88;;;18.49;53.86
61484;BME280;47349;55.640;37.692;2023-06-22T19:35:57;98984.53;;;18.44;53.91
61484;BME280;47349;55.640;37.692;2023-06-22T19:38:26;98978.31;;;18.43;53.94
61484;BME280;47349;55.640;37.692;2023-06-22T19:40:54;98978.94;;;18.50;53.92
61484;BME280;47349;55.640;37.692;2023-06-22T19:43:21;98965.81;;;18.42;54.07
61484;BME280;47349;55.640;37.692;2023-06-22T19:45:52;98971.53;;;18.29;54.74
61484;BME280;47349;55.640;37.692;2023-06-22T19:48:24;98969.38;;;18.31;54.71
61484;BME280;47349;55.640;37.692;2023-06-22T19:50:51;98962.16;;;18.37;54.36
61484;BME280;47349;55.640;37.692;2023-06-22T19:56:08;98961.06;;;18.21;54.56
61484;BME280;47349;55.640;37.692;2023-06-22T19:58:35;98967.22;;;18.16;54.75
61484;BME280;47349;55.640;37.692;2023-06-22T20:01:03;98964.41;;;18.11;55.39
61484;BME280;47349;55.640;37.692;2023-06-22T20:03:31;98961.44;;;18.13;55.12
61484;BME280;47349;55.640;37.692;2023-06-22T20:08:50;98963.75;;;18.04;55.57
61484;BME280;47349;55.640;37.692;2023-06-22T20:11:26;98947.91;;;17.84;56.18
61484;BME280;47349;55.640;37.692;2023-06-22T20:14:02;98955.34;;;17.77;56.39
61484;BME280;47349;55.640;37.692;2023-06-22T20:16:46;98958.03;;;17.77;56.28
61484;BME280;47349;55.640;37.692;2023-06-22T20:19:16;98953.31;;;17.72;56.52
61484;BME280;47349;55.640;37.692;2023-06-22T20:21:43;98947.66;;;17.74;56.01
61484;BME280;47349;55.640;37.692;2023-06-22T20:24:12;98948.59;;;17.68;56.33
61484;BME280;47349;55.640;37.692;2023-06-22T20:26:59;98941.06;;;17.70;56.40
61484;BME280;47349;55.640;37.692;2023-06-22T20:29:29;98941.91;;;17.70;56.23
61484;BME280;47349;55.640;37.692;2023-06-22T20:32:08;98925.66;;;17.59;56.17
61484;BME280;47349;55.640;37.692;2023-06-22T20:34:38;98937.09;;;17.61;56.38
61484;BME280;47349;55.640;37.692;2023-06-22T20:37:05;98932.38;;;17.56;56.64
61484;BME280;47349;55.640;37.692;2023-06-22T20:39:33;98927.09;;;17.50;56.45
61484;BME280;47349;55.640;37.692;2023-06-22T20:42:01;98926.97;;;17.44;56.75
61484;BME280;47349;55.640;37.692;2023-06-22T20:44:32;98919.81;;;17.38;57.04
61484;BME280;47349;55.640;37.692;2023-06-22T20:46:59;98914.50;;;17.43;56.79